Time;durP1;ratioP1;P1;durP2;ratioP2;P2;SDS_P1;SDS_P2;PMS_P1;PMS_P2;Temp;Humidity;BMP_temperature;BMP_pressure;BME280_temperature;BME280_humidity;BME280_pressure;Samples;Min_cycle;Max_cycle;Signal;HPM_P1;HPM_P2
2021/12/14 00:02:26;;;;;;;31.40;10.70;;;;;;;4.56;71.26;99800.59;24458;1357;3049145;-59
2021/12/14 00:05:45;;;;;;;22.70;10.00;;;;;;;4.35;72.03;99811.98;24448;1358;3052584;-58
2021/12/14 00:09:06;;;;;;;19.20;8.70;;;;;;;4.06;73.08;99818.90;24449;1361;3053084;-59
2021/12/14 00:15:54;;;;;;;28.10;9.00;;;;;;;3.69;74.45;99811.07;24433;1358;3050170;-59
2021/12/14 00:19:15;;;;;;;20.60;9.30;;;;;;;3.58;74.85;99811.02;24465;1355;3052228;-59
2021/12/14 00:24:06;;;;;;;28.80;10.00;;;;;;;3.40;75.42;99802.45;24460;1354;3051802;-58
2021/12/14 00:26:17;;;;;;;24.10;9.10;;;;;;;3.46;76.24;99792.62;24479;1354;3067412;-56
2021/12/14 00:29:39;;;;;;;18.60;8.20;;;;;;;4.46;72.92;99784.80;24450;1357;3047878;-56
2021/12/14 00:32:58;;;;;;;21.00;8.70;;;;;;;4.84;71.61;99782.56;24472;1354;3054048;-58
2021/12/14 00:36:11;;;;;;;19.70;7.90;;;;;;;4.50;72.19;99782.41;24489;1355;3052820;-58
2021/12/14 00:39:31;;;;;;;21.10;9.30;;;;;;;4.32;72.94;99782.77;24479;1358;3058780;-60
2021/12/14 00:42:50;;;;;;;19.40;8.00;;;;;;;3.89;74.07;99780.20;24442;1354;3049236;-57
2021/12/14 00:46:09;;;;;;;16.40;8.40;;;;;;;3.77;74.65;99779.66;24444;1354;3054168;-58
2021/12/14 00:49:22;;;;;;;17.30;9.00;;;;;;;3.63;75.23;99779.18;24467;1351;3050415;-59
2021/12/14 00:52:43;;;;;;;17.50;9.20;;;;;;;3.44;76.06;99784.52;24481;1354;3071715;-58
2021/12/14 00:56:05;;;;;;;18.00;7.50;;;;;;;3.47;76.52;99782.02;24503;1354;3051734;-57
2021/12/14 00:59:24;;;;;;;14.10;6.80;;;;;;;4.49;73.23;99769.78;24437;1351;3052699;-58
2021/12/14 01:02:37;;;;;;;20.70;7.60;;;;;;;4.84;71.55;99775.10;24460;1354;3052443;-58
2021/12/14 01:05:56;;;;;;;14.90;7.80;;;;;;;4.74;71.57;99784.98;24478;1355;3056093;-58
2021/12/14 01:09:05;;;;;;;21.80;8.50;;;;;;;4.48;72.22;99784.90;24505;1360;3051047;-58
2021/12/14 01:12:32;;;;;;;14.70;7.40;;;;;;;4.16;73.31;99778.89;24448;1355;3055467;-59
2021/12/14 01:19:14;;;;;;;13.60;7.90;;;;;;;3.75;74.95;99776.08;24460;1358;3071821;-58
2021/12/14 01:22:13;;;;;;;17.10;9.40;;;;;;;3.63;75.21;99773.64;24446;1359;3049277;-58
2021/12/14 01:25:02;;;;;;;15.00;8.90;;;;;;;3.53;75.56;99775.13;24478;1354;3055585;-59
2021/12/14 01:27:49;;;;;;;14.30;7.30;;;;;;;3.52;75.88;99779.11;24445;1362;3056323;-59
2021/12/14 01:30:42;;;;;;;14.40;7.40;;;;;;;4.29;73.80;99775.23;24490;1354;3058010;-56
2021/12/14 01:33:13;;;;;;;17.90;7.60;;;;;;;4.85;71.79;99770.37;24447;1354;3050499;-58
2021/12/14 01:35:45;;;;;;;23.30;8.20;;;;;;;4.78;71.38;99780.86;24480;1355;3026650;-58
2021/12/14 01:38:21;;;;;;;17.40;8.40;;;;;;;4.58;71.84;99783.02;24476;1354;3027666;-59
2021/12/14 01:40:56;;;;;;;15.90;9.40;;;;;;;4.40;72.33;99777.50;24473;1358;3071575;-58
2021/12/14 01:43:35;;;;;;;13.90;7.70;;;;;;;4.18;73.03;99775.54;24432;1363;3048296;-58
2021/12/14 01:46:19;;;;;;;19.20;8.80;;;;;;;4.05;73.54;99778.87;24454;1354;3052776;-56
2021/12/14 01:48:49;;;;;;;14.50;7.80;;;;;;;3.88;74.21;99783.67;24506;1360;3053892;-59
2021/12/14 01:51:49;;;;;;;17.30;9.80;;;;;;;3.72;74.75;99788.80;24440;1354;3059309;-59
2021/12/14 01:54:26;;;;;;;17.10;10.20;;;;;;;3.68;74.98;99787.02;24470;1360;3051870;-57
2021/12/14 01:56:55;;;;;;;14.90;7.40;;;;;;;3.62;75.58;99783.37;24471;1360;3026924;-55
2021/12/14 01:59:34;;;;;;;13.40;7.90;;;;;;;4.20;73.85;99783.46;24475;1359;3027061;-59
2021/12/14 02:02:29;;;;;;;21.40;7.40;;;;;;;4.68;72.07;99783.59;24467;1355;3050210;-56
2021/12/14 02:05:01;;;;;;;18.20;7.70;;;;;;;4.57;71.88;99782.88;24495;1357;3054386;-59
2021/12/14 02:07:42;;;;;;;;;;;;;;;4.43;72.18;99771.85;24498;1360;3054319;-60
2021/12/14 02:10:23;;;;;;;16.00;7.00;;;;;;;4.19;72.91;99775.69;24503;1354;3026497;-58
2021/12/14 02:12:53;;;;;;;14.90;7.60;;;;;;;3.98;73.60;99771.29;24437;1358;3052981;-57
2021/12/14 02:15:28;;;;;;;18.20;7.90;;;;;;;3.81;74.25;99768.81;24483;1354;3026757;-58
2021/12/14 02:18:00;;;;;;;18.80;8.70;;;;;;;3.66;74.71;99767.30;24431;1357;3070764;-60
2021/12/14 02:20:31;;;;;;;20.40;8.40;;;;;;;3.58;75.26;99772.38;24493;1354;3026928;-59
2021/12/14 02:23:01;;;;;;;15.30;7.20;;;;;;;3.44;75.63;99766.00;24496;1355;3026678;-56
2021/12/14 02:25:31;;;;;;;18.20;7.90;;;;;;;3.40;75.84;99766.29;24478;1354;3026669;-56
2021/12/14 02:28:02;;;;;;;18.10;7.40;;;;;;;3.85;74.80;99768.52;24462;1354;3028915;-62
2021/12/14 02:30:32;;;;;;;16.30;7.50;;;;;;;4.39;72.84;99763.84;24455;1357;3051756;-58
2021/12/14 02:33:10;;;;;;;17.50;8.90;;;;;;;4.57;72.19;99758.92;24489;1354;3026759;-59
2021/12/14 02:35:39;;;;;;;17.50;9.00;;;;;;;4.48;71.94;99756.09;24435;1356;3056336;-59
2021/12/14 02:38:11;;;;;;;22.30;10.10;;;;;;;4.30;72.59;99754.23;24449;1358;3029832;-59
2021/12/14 02:40:57;;;;;;;15.80;9.60;;;;;;;4.13;73.28;99752.81;24492;1354;3052969;-58
2021/12/14 02:43:35;;;;;;;21.60;9.70;;;;;;;4.04;73.75;99758.11;24482;1360;3059167;-57
2021/12/14 02:46:11;;;;;;;20.50;11.50;;;;;;;3.93;73.96;99761.38;24469;1354;3049578;-59
2021/12/14 02:48:43;;;;;;;26.40;13.80;;;;;;;3.83;74.37;99764.77;24492;1351;3053249;-59
2021/12/14 02:51:18;;;;;;;30.00;13.00;;;;;;;3.74;74.86;99769.71;24526;1358;3026175;-59
2021/12/14 02:53:51;;;;;;;20.60;11.60;;;;;;;3.67;75.09;99766.41;24476;1354;3066578;-60
2021/12/14 02:56:23;;;;;;;21.30;10.40;;;;;;;4.29;73.57;99768.80;24489;1354;3026308;-56
2021/12/14 02:58:57;;;;;;;18.10;9.10;;;;;;;4.85;71.47;99772.45;24555;1354;3026683;-58
2021/12/14 03:01:28;;;;;;;20.50;9.20;;;;;;;4.90;71.26;99773.36;24455;1360;3055704;-58
2021/12/14 03:04:01;;;;;;;18.50;8.40;;;;;;;4.71;71.30;99776.37;24397;1360;3026473;-59
2021/12/14 03:06:32;;;;;;;18.80;8.80;;;;;;;4.43;72.41;99773.41;24403;1360;3052213;-58
2021/12/14 03:09:20;;;;;;;16.20;9.30;;;;;;;4.23;73.10;99771.93;24453;1360;3027352;-60
2021/12/14 03:11:50;;;;;;;24.20;9.10;;;;;;;4.05;73.64;99768.65;24480;1354;3050331;-58
2021/12/14 03:14:20;;;;;;;24.20;9.30;;;;;;;3.89;74.20;99767.38;24470;1357;3026535;-60
2021/12/14 03:16:49;;;;;;;18.40;9.30;;;;;;;3.82;74.47;99760.10;24480;1354;3027026;-57
2021/12/14 03:19:18;;;;;;;22.90;10.00;;;;;;;3.74;74.81;99754.27;24476;1358;3052695;-57
2021/12/14 03:21:49;;;;;;;22.40;10.50;;;;;;;3.63;75.26;99756.13;24477;1352;3026815;-58
2021/12/14 03:24:18;;;;;;;18.60;9.90;;;;;;;4.07;74.31;99746.39;24500;1355;3026821;-55
2021/12/14 03:26:51;;;;;;;18.80;9.50;;;;;;;4.65;72.32;99751.05;24507;1359;3028809;-59
2021/12/14 03:29:28;;;;;;;24.60;10.00;;;;;;;4.80;71.74;99748.48;24503;1358;3026624;-58
2021/12/14 03:31:58;;;;;;;26.20;11.00;;;;;;;4.72;71.72;99747.89;24468;1355;3055287;-57
2021/12/14 03:34:34;;;;;;;20.50;11.00;;;;;;;4.52;72.27;99747.84;24474;1361;3051165;-59
2021/12/14 03:37:21;;;;;;;23.90;12.00;;;;;;;4.37;72.61;99752.61;24534;1355;3027132;-59
2021/12/14 03:39:53;;;;;;;27.00;13.10;;;;;;;4.23;73.19;99766.73;24448;1358;3053889;-59
2021/12/14 03:42:36;;;;;;;22.80;12.70;;;;;;;4.06;73.82;99773.30;24504;1355;3026857;-59
2021/12/14 03:45:12;;;;;;;32.30;11.90;;;;;;;3.93;74.10;99775.06;24487;1359;3049128;-63
2021/12/14 03:47:47;;;;;;;21.20;11.60;;;;;;;3.89;74.51;99775.86;24513;1361;3054989;-58
2021/12/14 03:50:23;;;;;;;17.40;9.30;;;;;;;3.78;75.12;99769.59;24464;1361;3055600;-59
2021/12/14 03:52:52;;;;;;;18.10;9.30;;;;;;;4.34;73.95;99773.02;24492;1353;3056039;-58
2021/12/14 03:55:30;;;;;;;21.50;8.80;;;;;;;4.86;72.04;99772.08;24483;1355;3026486;-57
2021/12/14 03:58:00;;;;;;;19.00;9.60;;;;;;;4.87;71.67;99784.73;24512;1353;3052969;-59
2021/12/14 04:00:40;;;;;;;20.40;10.10;;;;;;;4.73;71.98;99791.58;24506;1348;3028879;-57
2021/12/14 04:03:11;;;;;;;22.60;10.80;;;;;;;4.49;72.67;99792.16;24487;1358;3071854;-59
2021/12/14 04:06:09;;;;;;;19.50;10.70;;;;;;;4.25;73.54;99808.13;24519;1358;3049725;-58
2021/12/14 04:08:39;;;;;;;23.60;12.10;;;;;;;4.13;74.01;99807.77;24481;1358;3027307;-57
2021/12/14 04:11:10;;;;;;;32.90;11.90;;;;;;;4.02;74.53;99808.63;24489;1358;3069852;-58
2021/12/14 04:13:43;;;;;;;27.40;11.40;;;;;;;3.98;74.64;99810.28;24512;1357;3026479;-59
2021/12/14 04:16:15;;;;;;;23.90;12.10;;;;;;;3.87;75.03;99805.55;24480;1358;3051963;-58
2021/12/14 04:18:44;;;;;;;19.10;8.90;;;;;;;3.78;75.70;99805.64;24535;1355;3027348;-59
2021/12/14 04:21:13;;;;;;;21.60;9.80;;;;;;;4.32;74.44;99804.27;24507;1356;3026485;-59
2021/12/14 04:23:44;;;;;;;26.40;9.50;;;;;;;4.80;72.53;99802.13;24445;1358;3054004;-60
2021/12/14 04:26:15;;;;;;;21.40;9.90;;;;;;;4.83;72.04;99797.70;24510;1354;3026532;-59
2021/12/14 04:28:51;;;;;;;17.20;8.70;;;;;;;4.69;72.31;99799.36;24491;1354;3026342;-60
2021/12/14 04:31:21;;;;;;;25.30;10.20;;;;;;;4.46;72.81;99794.13;24463;1355;3052799;-58
2021/12/14 04:33:51;;;;;;;20.50;10.40;;;;;;;4.25;73.35;99801.35;24456;1355;3026525;-58
2021/12/14 04:36:24;;;;;;;20.80;10.40;;;;;;;4.09;73.90;99801.30;24548;1354;3027279;-58
2021/12/14 04:39:02;;;;;;;23.50;10.20;;;;;;;3.93;74.51;99804.35;24488;1360;3026603;-57
2021/12/14 04:53:24;;;;;;;19.10;8.80;;;;;;;5.05;71.25;99818.02;24465;1354;3050940;-59
2021/12/14 04:55:54;;;;;;;18.30;9.00;;;;;;;4.88;71.23;99823.73;24466;1351;3052056;-59
2021/12/14 04:58:35;;;;;;;19.10;9.80;;;;;;;4.63;71.90;99818.11;24502;1358;3026635;-60
2021/12/14 05:01:05;;;;;;;18.90;10.50;;;;;;;4.44;72.49;99813.09;24446;1354;3068532;-57
2021/12/14 05:03:48;;;;;;;23.40;10.40;;;;;;;4.25;73.07;99812.45;24472;1354;3026609;-59
2021/12/14 05:06:21;;;;;;;26.30;11.60;;;;;;;4.07;73.85;99813.67;24390;1354;3054807;-59
2021/12/14 05:09:21;;;;;;;28.90;12.30;;;;;;;4.01;74.24;99818.52;24505;1358;3052830;-60
2021/12/14 05:12:01;;;;;;;23.10;10.30;;;;;;;3.88;74.79;99820.08;24514;1357;3059307;-56
2021/12/14 05:14:33;;;;;;;21.10;11.00;;;;;;;3.78;75.00;99815.50;24460;1361;3052534;-59
2021/12/14 05:17:06;;;;;;;22.00;10.80;;;;;;;3.77;75.23;99805.50;24473;1357;3026081;-59
2021/12/14 05:19:38;;;;;;;18.20;10.30;;;;;;;3.66;75.52;99805.24;24479;1358;3050866;-59
2021/12/14 05:22:11;;;;;;;21.00;10.00;;;;;;;4.22;74.34;99804.37;24479;1354;3027606;-59
2021/12/14 05:24:57;;;;;;;23.10;10.10;;;;;;;4.85;72.13;99811.00;24489;1354;3050176;-58
2021/12/14 05:27:32;;;;;;;21.20;11.30;;;;;;;4.96;71.33;99819.50;24444;1360;3054871;-60
2021/12/14 05:30:22;;;;;;;22.00;10.70;;;;;;;4.89;71.44;99823.03;24474;1358;3053578;-59
2021/12/14 05:33:25;;;;;;;25.30;12.60;;;;;;;4.70;72.12;99831.79;24524;1354;3058938;-58
2021/12/14 05:35:56;;;;;;;20.30;11.10;;;;;;;4.47;72.88;99829.84;24464;1357;3052948;-59
2021/12/14 05:38:41;;;;;;;18.70;10.10;;;;;;;4.34;73.36;99832.64;24488;1354;3027655;-59
2021/12/14 05:44:14;;;;;;;20.00;11.20;;;;;;;4.07;74.72;99841.39;24481;1354;3069118;-58
2021/12/14 05:46:50;;;;;;;29.70;11.60;;;;;;;3.96;74.96;99846.55;24524;1352;3049391;-59
2021/12/14 05:49:31;;;;;;;21.30;10.80;;;;;;;3.90;75.34;99848.80;24540;1357;3052409;-59
2021/12/14 05:52:00;;;;;;;19.70;9.30;;;;;;;3.92;75.33;99851.17;24464;1357;3026999;-59
2021/12/14 05:54:31;;;;;;;15.10;8.10;;;;;;;4.45;73.65;99846.54;24463;1354;3030959;-58
2021/12/14 05:57:02;;;;;;;20.40;9.10;;;;;;;5.08;71.57;99848.46;24463;1358;3054046;-59
2021/12/14 05:59:33;;;;;;;19.90;9.90;;;;;;;5.17;70.68;99843.67;24513;1359;3026811;-59
2021/12/14 06:02:05;;;;;;;20.60;9.70;;;;;;;5.03;71.00;99834.91;24496;1358;3029059;-58
2021/12/14 06:04:46;;;;;;;31.30;10.70;;;;;;;4.84;71.37;99837.23;24453;1361;3026913;-59
2021/12/14 06:07:15;;;;;;;22.20;10.00;;;;;;;4.74;71.61;99834.95;24486;1354;3056138;-60
2021/12/14 06:09:48;;;;;;;19.80;11.10;;;;;;;4.57;71.99;99837.17;24492;1354;3026754;-59
2021/12/14 06:12:27;;;;;;;25.40;11.40;;;;;;;4.43;72.64;99844.52;24463;1352;3068381;-60
2021/12/14 06:14:59;;;;;;;25.30;13.30;;;;;;;4.30;73.11;99843.69;24478;1360;3049302;-60
2021/12/14 06:17:36;;;;;;;27.40;14.30;;;;;;;4.21;73.43;99838.92;24469;1361;3027005;-59
2021/12/14 06:20:15;;;;;;;28.30;13.80;;;;;;;4.13;73.62;99834.64;24489;1358;3050271;-58
2021/12/14 06:22:45;;;;;;;31.50;16.00;;;;;;;4.07;73.76;99834.11;24519;1352;3056744;-61
2021/12/14 06:25:27;;;;;;;28.40;14.80;;;;;;;4.03;74.19;99835.25;24433;1360;3052309;-60
2021/12/14 06:27:59;;;;;;;26.70;12.40;;;;;;;4.12;74.08;99834.69;24434;1358;3055610;-59
2021/12/14 06:30:30;;;;;;;24.30;12.10;;;;;;;4.72;72.62;99836.91;24415;1357;3026837;-58
2021/12/14 06:33:06;;;;;;;30.80;12.20;;;;;;;5.27;70.30;99835.67;24459;1354;3026826;-59
2021/12/14 06:35:37;;;;;;;34.70;13.00;;;;;;;5.38;69.73;99825.08;24475;1353;3049553;-60
2021/12/14 06:40:56;;;;;;;26.00;11.30;;;;;;;5.14;70.21;99834.05;24507;1354;3055285;-59
2021/12/14 06:43:30;;;;;;;24.20;11.80;;;;;;;4.93;70.69;99844.96;24464;1358;3058975;-60
2021/12/14 06:46:03;;;;;;;24.00;10.60;;;;;;;4.83;71.22;99850.83;24447;1355;3052567;-59
2021/12/14 06:48:38;;;;;;;20.40;10.90;;;;;;;4.78;71.30;99854.42;24454;1357;3051782;-60
2021/12/14 06:51:22;;;;;;;21.60;11.00;;;;;;;4.67;71.66;99867.07;24467;1354;3050910;-59
2021/12/14 06:54:13;;;;;;;25.50;11.10;;;;;;;4.47;72.41;99870.29;24474;1357;3071654;-59
2021/12/14 06:57:09;;;;;;;26.10;11.30;;;;;;;4.32;73.34;99871.23;24432;1361;3051024;-58
2021/12/14 06:59:43;;;;;;;26.90;11.80;;;;;;;4.29;73.28;99877.19;24408;1360;3052829;-58
2021/12/14 07:02:22;;;;;;;26.40;13.40;;;;;;;4.26;73.38;99882.30;24477;1358;3054121;-60
2021/12/14 07:05:20;;;;;;;22.00;10.60;;;;;;;4.23;73.60;99887.25;24455;1355;3059401;-58
2021/12/14 07:07:52;;;;;;;19.40;8.70;;;;;;;4.23;73.65;99880.51;24465;1359;3052224;-59
2021/12/14 07:10:21;;;;;;;18.80;9.50;;;;;;;4.79;71.96;99869.84;24495;1357;3025754;-59
2021/12/14 07:12:51;;;;;;;21.90;11.00;;;;;;;5.35;70.01;99860.29;24481;1358;3027022;-59
2021/12/14 07:15:25;;;;;;;22.40;12.10;;;;;;;5.50;69.34;99857.35;24487;1354;3051172;-60
2021/12/14 07:18:03;;;;;;;20.60;10.90;;;;;;;5.40;69.45;99862.55;24567;1355;3054786;-59
2021/12/14 07:20:49;;;;;;;22.80;11.80;;;;;;;5.22;69.90;99861.73;24493;1354;3053733;-61
2021/12/14 07:23:28;;;;;;;18.20;10.40;;;;;;;5.00;70.60;99867.65;24469;1354;3070861;-60
2021/12/14 07:26:04;;;;;;;23.90;11.40;;;;;;;4.88;70.79;99865.58;24488;1352;3048917;-58
2021/12/14 07:28:37;;;;;;;23.80;11.00;;;;;;;4.83;71.25;99871.29;24543;1354;3054869;-59
2021/12/14 07:31:18;;;;;;;23.30;10.60;;;;;;;4.71;71.41;99877.39;24488;1354;3026667;-59
2021/12/14 07:33:53;;;;;;;22.60;9.50;;;;;;;4.63;71.95;99874.13;24495;1351;3056925;-59
2021/12/14 07:36:25;;;;;;;20.20;10.40;;;;;;;4.59;71.71;99875.83;24469;1354;3049498;-59
2021/12/14 07:39:05;;;;;;;21.40;11.30;;;;;;;4.55;71.79;99874.20;24496;1354;3026473;-58
2021/12/14 07:41:44;;;;;;;16.80;10.00;;;;;;;4.35;72.82;99876.85;24486;1360;3053844;-58
2021/12/14 07:44:23;;;;;;;;;;;;;;;4.37;73.14;99882.51;24440;1354;3067106;-58
2021/12/14 07:46:53;;;;;;;18.10;10.00;;;;;;;4.34;73.14;99879.13;24529;1358;3047628;-60
2021/12/14 07:49:23;;;;;;;15.30;9.40;;;;;;;4.33;72.99;99884.91;24521;1354;3028834;-58
2021/12/14 07:51:56;;;;;;;20.60;9.20;;;;;;;4.43;72.79;99882.55;24475;1354;3026652;-59
2021/12/14 07:54:28;;;;;;;13.00;7.20;;;;;;;4.46;72.51;99889.23;24476;1357;3049749;-59
2021/12/14 08:00:42;;;;;;;12.40;7.70;;;;;;;5.52;68.69;99902.10;21692;1359;3057451;-63
2021/12/14 08:03:33;;;;;;;13.60;8.10;;;;;;;5.48;68.65;99898.96;21807;1361;3059643;-64
2021/12/14 08:07:04;;;;;;;18.70;9.60;;;;;;;5.35;68.99;99894.16;21530;1362;3053679;-64
2021/12/14 08:09:50;;;;;;;15.80;10.00;;;;;;;5.10;69.78;99882.61;24480;1354;3054713;-60
2021/12/14 08:12:46;;;;;;;22.50;11.10;;;;;;;4.98;70.33;99875.69;21474;1354;3054121;-60
2021/12/14 08:15:42;;;;;;;19.00;9.90;;;;;;;4.88;70.56;99874.80;24507;1361;3071003;-57
2021/12/14 08:18:23;;;;;;;17.00;8.80;;;;;;;4.72;71.27;99877.68;24404;1354;3051861;-59
2021/12/14 08:20:57;;;;;;;18.10;9.40;;;;;;;4.66;71.59;99876.84;24502;1360;3055143;-62
2021/12/14 08:23:28;;;;;;;17.50;9.70;;;;;;;4.57;72.02;99877.96;24468;1353;3051687;-60
2021/12/14 08:26:15;;;;;;;18.70;10.10;;;;;;;4.50;72.19;99875.55;24499;1354;3027815;-60
2021/12/14 08:29:10;;;;;;;18.00;9.20;;;;;;;4.44;72.53;99873.47;21802;1359;3053305;-63
2021/12/14 08:32:24;;;;;;;16.90;9.50;;;;;;;4.38;72.66;99870.18;22024;1359;3057609;-65
2021/12/14 08:35:18;;;;;;;19.30;9.70;;;;;;;4.30;73.20;99869.22;21733;1367;3054191;-65
2021/12/14 08:38:05;;;;;;;20.60;9.70;;;;;;;4.29;73.16;99873.02;21799;1368;3072339;-63
2021/12/14 08:41:01;;;;;;;17.70;8.60;;;;;;;4.33;73.05;99867.55;21931;1364;3052708;-62
2021/12/14 08:43:52;;;;;;;;;;;;;;;5.30;70.66;99861.10;21933;1366;3056859;-65
2021/12/14 08:46:35;;;;;;;15.50;8.80;;;;;;;5.86;67.84;99854.89;21888;1364;3056151;-66
2021/12/14 08:49:19;;;;;;;17.50;9.50;;;;;;;5.97;67.20;99845.69;21727;1364;3061009;-64
2021/12/14 08:52:01;;;;;;;24.40;9.50;;;;;;;5.74;67.59;99840.55;21725;1364;3055608;-64
2021/12/14 08:54:46;;;;;;;29.00;10.80;;;;;;;5.51;68.11;99839.93;21927;1366;3055648;-64
2021/12/14 08:57:44;;;;;;;23.30;11.90;;;;;;;5.23;69.17;99845.56;21861;1366;3055306;-63
2021/12/14 09:00:32;;;;;;;26.00;11.90;;;;;;;4.99;70.30;99845.11;21716;1363;3070963;-60
2021/12/14 09:03:32;;;;;;;27.80;14.40;;;;;;;5.00;70.37;99847.34;21605;1364;3052753;-64
2021/12/14 09:06:28;;;;;;;24.10;14.60;;;;;;;4.94;70.73;99852.53;21628;1368;3056097;-63
2021/12/14 09:09:21;;;;;;;31.70;16.30;;;;;;;4.85;71.19;99855.95;21699;1364;3055110;-66
2021/12/14 09:16:22;;;;;;;24.20;14.80;;;;;;;4.62;71.70;99832.52;20884;1362;3052196;-65
2021/12/14 09:19:26;;;;;;;20.50;11.60;;;;;;;4.73;71.05;99824.04;20632;1364;3058401;-64
2021/12/14 09:22:30;;;;;;;27.30;14.00;;;;;;;4.81;70.55;99820.65;20708;1364;3053870;-63
2021/12/14 09:25:47;;;;;;;26.00;13.70;;;;;;;4.77;70.46;99818.55;20505;1373;3073023;-64
2021/12/14 09:28:30;;;;;;;29.10;15.70;;;;;;;4.74;70.90;99813.95;20518;1375;3056495;-62
2021/12/14 09:31:31;;;;;;;27.40;15.30;;;;;;;4.64;71.49;99817.38;20761;1369;3055647;-62
2021/12/14 09:34:34;;;;;;;38.10;17.00;;;;;;;4.54;71.69;99822.02;20379;1375;3056095;-66
2021/12/14 09:37:37;;;;;;;31.30;17.00;;;;;;;4.44;72.36;99823.89;20386;1378;3058966;-63
2021/12/14 09:40:55;;;;;;;33.10;13.20;;;;;;;4.63;71.41;99812.88;20342;1380;3052780;-61
2021/12/14 09:43:32;;;;;;;28.00;12.40;;;;;;;5.62;68.93;99813.86;20328;1378;3058929;-61
2021/12/14 09:46:12;;;;;;;32.60;13.60;;;;;;;6.01;66.87;99815.29;20289;1381;3059760;-62
2021/12/14 09:48:54;;;;;;;27.50;15.40;;;;;;;6.04;66.49;99830.50;20241;1384;3073045;-63
2021/12/14 09:51:36;;;;;;;28.90;15.40;;;;;;;5.70;67.06;99844.14;20333;1382;3052196;-63
2021/12/14 09:54:18;;;;;;;30.10;15.80;;;;;;;5.52;67.96;99842.52;20233;1382;3056644;-65
2021/12/14 09:57:18;;;;;;;27.90;14.80;;;;;;;5.44;68.04;99838.80;20199;1377;3056651;-66
2021/12/14 09:59:56;;;;;;;25.80;14.60;;;;;;;5.26;68.23;99824.95;20359;1380;3063587;-66
2021/12/14 10:02:57;;;;;;;25.20;13.80;;;;;;;5.25;68.47;99823.09;20275;1385;3054197;-63
2021/12/14 10:05:54;;;;;;;26.30;14.00;;;;;;;5.15;68.48;99827.94;20368;1382;3055373;-66
2021/12/14 10:08:57;;;;;;;23.00;12.40;;;;;;;5.09;68.53;99828.30;20302;1377;3054239;-62
2021/12/14 10:14:50;;;;;;;24.00;13.40;;;;;;;4.82;69.67;99829.50;20421;1375;3052518;-66
2021/12/14 10:17:54;;;;;;;29.00;13.30;;;;;;;4.90;69.07;99818.12;20486;1376;3057310;-66
2021/12/14 10:20:54;;;;;;;22.50;12.40;;;;;;;4.95;68.42;99809.30;20505;1375;3058553;-66
2021/12/14 10:23:36;;;;;;;20.40;11.90;;;;;;;4.96;68.29;99810.14;20565;1373;3061427;-65
2021/12/14 10:26:26;;;;;;;26.00;12.20;;;;;;;4.84;68.38;99811.55;20451;1375;3053136;-65
2021/12/14 10:29:29;;;;;;;27.30;14.70;;;;;;;4.84;68.44;99802.88;20346;1368;3057573;-63
2021/12/14 10:32:33;;;;;;;24.50;14.10;;;;;;;4.66;69.39;99801.17;20626;1366;3056369;-64
2021/12/14 10:35:22;;;;;;;23.00;13.10;;;;;;;4.68;69.08;99800.06;20821;1363;3070832;-64
2021/12/14 10:38:31;;;;;;;25.80;12.90;;;;;;;4.71;68.85;99790.95;20640;1365;3052903;-64
2021/12/14 10:44:26;;;;;;;26.20;15.70;;;;;;;4.57;69.70;99799.02;20646;1364;3054143;-64
2021/12/14 10:47:41;;;;;;;24.80;15.20;;;;;;;4.44;70.29;99800.63;20581;1368;3059060;-64
2021/12/14 10:51:00;;;;;;;29.10;15.90;;;;;;;4.44;70.58;99794.05;20522;1372;3054970;-65
2021/12/14 10:53:47;;;;;;;24.60;15.00;;;;;;;4.36;70.63;99799.47;20608;1364;3057159;-66
2021/12/14 10:56:57;;;;;;;37.70;17.10;;;;;;;4.42;70.58;99805.36;20531;1370;3057916;-63
2021/12/14 10:59:54;;;;;;;32.20;16.70;;;;;;;4.44;70.35;99802.19;20565;1364;3072290;-63
2021/12/14 11:02:49;;;;;;;26.10;15.80;;;;;;;4.38;70.44;99795.25;20761;1364;3054922;-64
2021/12/14 11:05:31;;;;;;;29.50;16.30;;;;;;;4.48;69.97;99796.52;20590;1364;3055460;-62
2021/12/14 11:11:44;;;;;;;31.00;15.70;;;;;;;4.62;68.97;99803.38;20574;1361;3064503;-63
2021/12/14 11:14:37;;;;;;;30.00;16.10;;;;;;;4.40;69.42;99808.55;20565;1364;3053824;-63
2021/12/14 11:21:13;;;;;;;24.80;13.80;;;;;;;4.52;69.18;99798.82;20579;1367;3055635;-64
2021/12/14 11:24:13;;;;;;;;;;;;;;;;;;;;;
2021/12/14 11:26:55;;;;;;;25.70;13.70;;;;;;;4.54;68.72;99801.73;20670;1361;3051642;-62
2021/12/14 11:29:44;;;;;;;26.10;14.10;;;;;;;4.44;68.79;99807.73;20568;1361;3056601;-64
2021/12/14 11:32:31;;;;;;;26.20;15.40;;;;;;;4.38;68.96;99811.38;20728;1360;3056269;-63
2021/12/14 11:35:43;;;;;;;26.00;15.10;;;;;;;4.37;69.25;99813.15;20544;1366;3059064;-65
2021/12/14 11:42:35;;;;;;;30.60;17.00;;;;;;;4.23;69.96;99814.59;20536;1369;3054551;-63
2021/12/14 11:45:21;;;;;;;26.60;17.20;;;;;;;4.22;69.99;99806.65;20435;1370;3057314;-62
2021/12/14 11:48:12;;;;;;;26.80;16.20;;;;;;;4.33;69.36;99802.52;20569;1366;3073486;-65
2021/12/14 11:51:19;;;;;;;31.90;17.30;;;;;;;4.27;69.35;99803.55;20672;1365;3053509;-66
2021/12/14 11:54:18;;;;;;;26.10;15.00;;;;;;;4.23;69.76;99789.64;20798;1363;3056370;-62
2021/12/14 11:57:14;;;;;;;29.50;16.80;;;;;;;4.33;69.45;99791.60;20546;1364;3053994;-63
2021/12/14 12:00:10;;;;;;;24.10;13.90;;;;;;;4.40;68.78;99780.11;20719;1369;3062101;-64
2021/12/14 12:02:58;;;;;;;28.50;15.20;;;;;;;4.41;68.28;99777.12;20866;1358;3052909;-62
2021/12/14 12:06:05;;;;;;;29.80;15.00;;;;;;;4.40;68.68;99784.44;20791;1362;3055477;-63
2021/12/14 12:09:28;;;;;;;28.90;15.70;;;;;;;4.32;68.73;99798.90;20753;1360;3054902;-62
2021/12/14 12:12:41;;;;;;;32.30;17.40;;;;;;;4.02;69.53;99811.73;20601;1359;3073209;-63
2021/12/14 12:16:13;;;;;;;28.80;17.40;;;;;;;3.92;70.04;99816.68;20764;1359;3051852;-66
2021/12/14 12:19:42;;;;;;;31.10;18.60;;;;;;;3.98;69.97;99819.12;20749;1356;3056107;-64
2021/12/14 12:22:54;;;;;;;28.30;16.00;;;;;;;4.08;69.52;99822.83;20928;1355;3055931;-63
2021/12/14 12:25:59;;;;;;;27.20;16.80;;;;;;;4.11;69.36;99833.16;20754;1355;3059686;-62
2021/12/14 12:28:51;;;;;;;28.00;16.40;;;;;;;4.05;69.29;99843.36;20704;1359;3053265;-62
2021/12/14 12:31:55;;;;;;;30.20;16.30;;;;;;;4.03;69.46;99846.89;20681;1355;3059806;-61
2021/12/14 12:37:42;;;;;;;29.30;15.70;;;;;;;4.04;69.38;99850.34;20718;1359;3074803;-62
2021/12/14 12:40:49;;;;;;;21.10;14.10;;;;;;;4.18;69.02;99843.00;20785;1354;3051914;-65
2021/12/14 12:43:31;;;;;;;20.30;13.40;;;;;;;4.23;68.31;99836.11;20774;1353;3057487;-62
2021/12/14 12:46:14;;;;;;;19.60;12.40;;;;;;;4.22;68.09;99824.69;20816;1359;3056605;-62
2021/12/14 12:49:11;;;;;;;23.40;13.50;;;;;;;4.22;68.03;99820.88;20885;1356;3061537;-64
2021/12/14 12:52:10;;;;;;;22.30;13.90;;;;;;;4.21;67.87;99818.46;20531;1359;3053825;-65
2021/12/14 12:55:11;;;;;;;31.00;14.30;;;;;;;4.21;68.13;99815.70;20904;1355;3056781;-63
2021/12/14 12:58:11;;;;;;;18.30;12.20;;;;;;;4.13;68.14;99813.15;20747;1356;3054990;-61
2021/12/14 13:00:52;;;;;;;27.60;14.10;;;;;;;4.13;68.08;99821.14;20633;1353;3071257;-61
2021/12/14 13:03:42;;;;;;;22.00;13.60;;;;;;;4.07;68.32;99827.72;20717;1354;3050501;-65
2021/12/14 13:06:22;;;;;;;22.50;14.20;;;;;;;4.08;68.30;99834.60;19788;1357;3357098;-63
2021/12/14 13:09:03;;;;;;;24.10;15.60;;;;;;;4.09;68.48;99839.94;20797;1358;3071449;-61
2021/12/14 13:11:50;;;;;;;20.60;13.60;;;;;;;4.02;68.50;99844.98;20698;1355;3052225;-66
2021/12/14 13:14:26;;;;;;;19.10;12.90;;;;;;;4.07;68.23;99848.17;20454;1360;3055802;-65
2021/12/14 13:17:08;;;;;;;21.70;13.90;;;;;;;4.07;68.11;99845.39;20589;1353;3055865;-63
2021/12/14 13:20:00;;;;;;;21.00;13.10;;;;;;;4.12;68.04;99837.27;20527;1351;3059486;-63
2021/12/14 13:22:49;;;;;;;21.10;12.50;;;;;;;4.09;67.84;99836.52;20474;1356;3054939;-63
2021/12/14 13:25:38;;;;;;;21.50;13.40;;;;;;;4.08;67.66;99838.60;20600;1359;3057078;-64
2021/12/14 13:28:22;;;;;;;21.90;13.70;;;;;;;3.93;68.34;99837.11;20568;1353;3054964;-64
2021/12/14 13:31:01;;;;;;;21.80;13.70;;;;;;;3.97;68.42;99842.53;20559;1356;3073540;-64
2021/12/14 13:33:49;;;;;;;22.30;13.60;;;;;;;3.92;68.53;99845.46;20531;1358;3053077;-63
2021/12/14 13:36:30;;;;;;;25.50;13.80;;;;;;;3.90;68.77;99847.59;20514;1355;3053670;-63